Time;durP1;ratioP1;P1;durP2;ratioP2;P2;SDS_P1;SDS_P2;PMS_P1;PMS_P2;Temp;Humidity;BMP_temperature;BMP_pressure;BME280_temperature;BME280_humidity;BME280_pressure;Samples;Min_cycle;Max_cycle;Signal;HPM_P1;HPM_P2
2024/01/15 00:01:11;;;;;;;21.83;16.83;;;;;;;-0.69;77.44;92142.75;5050941;28;20214;-81
2024/01/15 00:03:36;;;;;;;19.57;17.47;;;;;;;-0.56;77.18;92137.41;5049479;28;20237;-76
2024/01/15 00:06:02;;;;;;;21.40;17.80;;;;;;;-0.46;76.54;92142.75;5035672;28;21161;-77
2024/01/15 00:08:27;;;;;;;21.80;19.27;;;;;;;-0.55;76.21;92149.22;5050406;28;20285;-77
2024/01/15 00:10:53;;;;;;;20.83;18.00;;;;;;;-0.80;76.96;92134.06;5044218;28;20205;-77
2024/01/15 00:13:18;;;;;;;20.93;18.47;;;;;;;-0.75;77.34;92154.69;5046018;28;20231;-77
2024/01/15 00:15:43;;;;;;;21.77;18.00;;;;;;;-0.67;77.18;92151.78;5052082;28;20198;-77
2024/01/15 00:18:09;;;;;;;24.73;18.13;;;;;;;-0.60;76.57;92156.78;5052121;28;20214;-76
2024/01/15 00:20:34;;;;;;;22.47;19.07;;;;;;;-0.73;78.26;92136.53;5047905;28;20232;-77
2024/01/15 00:23:00;;;;;;;18.37;16.47;;;;;;;-0.76;78.35;92137.72;5052095;28;20244;-77
2024/01/15 00:25:25;;;;;;;19.63;16.00;;;;;;;-0.60;77.54;92149.88;5044184;28;20189;-77
2024/01/15 00:27:50;;;;;;;21.37;18.07;;;;;;;-1.00;79.15;92140.50;5049689;28;20222;-81
2024/01/15 00:30:15;;;;;;;23.50;18.00;;;;;;;-1.02;79.37;92120.22;5050197;28;20193;-80
2024/01/15 00:32:41;;;;;;;25.97;17.80;;;;;;;-0.77;78.92;92130.28;5047087;28;20271;-73
2024/01/15 00:35:06;;;;;;;18.43;15.80;;;;;;;-0.93;78.40;92144.50;5052240;28;20210;-76
2024/01/15 00:37:32;;;;;;;18.23;16.43;;;;;;;-0.64;78.19;92151.31;5051499;28;20229;-75
2024/01/15 00:39:57;;;;;;;18.63;15.73;;;;;;;-0.84;78.78;92150.09;5047949;28;20198;-76
2024/01/15 00:42:23;;;;;;;18.40;16.50;;;;;;;-0.89;79.20;92158.44;5050628;28;20275;-75
2024/01/15 00:44:48;;;;;;;18.40;16.40;;;;;;;-1.13;79.07;92126.09;5051525;28;20178;-75
2024/01/15 00:47:13;;;;;;;18.03;16.33;;;;;;;-0.94;79.33;92149.84;5042168;28;20222;-75
2024/01/15 00:49:39;;;;;;;21.03;16.53;;;;;;;-1.05;79.58;92142.94;5052634;28;20182;-76
2024/01/15 00:52:05;;;;;;;17.47;15.53;;;;;;;-0.96;79.72;92154.41;5050503;28;20317;-76
2024/01/15 00:54:30;;;;;;;17.63;14.07;;;;;;;-0.83;79.18;92129.38;5045570;28;20195;-75
2024/01/15 00:56:55;;;;;;;17.43;15.53;;;;;;;-0.92;79.76;92145.31;5038775;28;20231;-75
2024/01/15 00:59:21;;;;;;;17.80;15.63;;;;;;;-0.99;79.70;92142.03;5052527;28;20190;-75
2024/01/15 01:01:46;;;;;;;16.63;14.47;;;;;;;-1.00;80.18;92137.94;5050646;28;20253;-75
2024/01/15 01:04:12;;;;;;;16.80;15.23;;;;;;;-1.02;80.26;92137.38;5050864;28;20193;-75
2024/01/15 01:06:38;;;;;;;15.50;14.07;;;;;;;-0.92;80.49;92140.19;5050578;28;20820;-75
2024/01/15 01:09:03;;;;;;;18.20;16.33;;;;;;;-0.97;79.71;92129.81;5046110;28;20209;-76
2024/01/15 01:11:28;;;;;;;19.17;17.23;;;;;;;-0.90;79.82;92140.75;5051231;28;20194;-75
2024/01/15 01:13:54;;;;;;;16.97;15.30;;;;;;;-1.02;80.35;92147.59;5050055;28;20201;-75
2024/01/15 01:16:19;;;;;;;18.80;16.87;;;;;;;-1.16;80.71;92143.69;5051634;28;20264;-75
2024/01/15 01:18:45;;;;;;;16.07;14.70;;;;;;;-1.08;80.55;92143.38;5051209;28;20221;-75
2024/01/15 01:21:10;;;;;;;17.50;15.57;;;;;;;-1.08;81.03;92138.25;5051150;28;20222;-75
2024/01/15 01:23:35;;;;;;;16.47;14.77;;;;;;;-1.08;81.37;92135.69;5044448;28;20246;-75
2024/01/15 01:26:01;;;;;;;16.37;14.73;;;;;;;-1.27;81.34;92113.72;5050708;28;20190;-75
2024/01/15 01:28:28;;;;;;;17.10;15.37;;;;;;;-1.02;80.75;92127.91;5049304;28;20234;-76
2024/01/15 01:30:53;;;;;;;18.07;16.13;;;;;;;-1.06;81.57;92118.34;5051574;28;20249;-75
2024/01/15 01:33:18;;;;;;;18.03;16.13;;;;;;;-1.03;80.42;92123.81;5049821;28;20218;-75
2024/01/15 01:35:44;;;;;;;18.43;16.07;;;;;;;-1.04;80.69;92124.03;5049998;28;20186;-75
2024/01/15 01:38:10;;;;;;;17.97;15.50;;;;;;;-0.98;79.88;92111.09;5050295;28;20297;-75
2024/01/15 01:40:35;;;;;;;17.80;15.93;;;;;;;-1.12;80.00;92112.28;5050717;28;20190;-75
2024/01/15 01:43:03;;;;;;;21.27;15.23;;;;;;;-1.10;79.96;92119.75;5048101;28;20221;-75
2024/01/15 01:45:28;;;;;;;19.67;17.63;;;;;;;-0.96;79.58;92106.53;5049936;28;20213;-75
2024/01/15 01:47:54;;;;;;;16.00;14.40;;;;;;;-0.90;79.56;92120.25;5050637;28;20230;-75
2024/01/15 01:50:19;;;;;;;18.33;16.40;;;;;;;-0.95;79.18;92117.56;5050849;28;20181;-77
2024/01/15 01:52:45;;;;;;;18.67;16.83;;;;;;;-1.21;80.06;92097.47;5050642;28;20221;-77
2024/01/15 01:55:12;;;;;;;22.47;15.37;;;;;;;-1.06;80.84;92118.34;5051375;28;20212;-77
2024/01/15 01:57:38;;;;;;;22.87;18.43;;;;;;;-1.14;81.02;92098.16;5044666;28;20926;-77
2024/01/15 02:00:04;;;;;;;19.77;17.53;;;;;;;-1.13;81.12;92120.19;5051224;28;20186;-77
2024/01/15 02:02:32;;;;;;;21.03;16.03;;;;;;;-1.20;80.14;92073.44;5048926;28;20293;-78
2024/01/15 02:04:57;;;;;;;20.53;17.33;;;;;;;-1.14;80.13;92077.69;5046486;28;20196;-77
2024/01/15 02:07:22;;;;;;;22.27;17.80;;;;;;;-1.19;81.42;92096.28;5050196;28;20229;-78
2024/01/15 02:09:49;;;;;;;18.33;15.10;;;;;;;-1.66;82.05;92054.44;5040568;28;20175;-78
2024/01/15 02:12:14;;;;;;;17.90;15.63;;;;;;;-1.40;84.68;92083.97;5040672;28;20230;-77
2024/01/15 02:14:40;;;;;;;18.23;15.77;;;;;;;-1.05;82.61;92087.38;5050230;28;20197;-77
2024/01/15 02:17:06;;;;;;;21.93;17.93;;;;;;;-1.24;83.52;92085.91;5041264;28;20233;-77
2024/01/15 02:19:31;;;;;;;19.80;17.80;;;;;;;-1.16;81.81;92079.66;5050850;28;20190;-77
2024/01/15 02:21:57;;;;;;;19.90;17.77;;;;;;;-1.32;82.13;92062.41;5049907;28;20241;-77
2024/01/15 02:24:22;;;;;;;21.67;18.37;;;;;;;-1.20;80.77;92068.31;5042696;28;20178;-77
2024/01/15 02:26:48;;;;;;;23.10;19.20;;;;;;;-1.39;82.04;92066.84;5036060;28;20254;-77
2024/01/15 02:29:15;;;;;;;22.30;18.13;;;;;;;-1.06;80.60;92034.59;5049821;28;20174;-77
2024/01/15 02:31:40;;;;;;;24.90;18.63;;;;;;;-1.23;80.88;92002.19;5048521;28;20217;-77
2024/01/15 02:34:05;;;;;;;22.80;18.43;;;;;;;-1.32;89.67;92018.91;5048822;28;20222;-78
2024/01/15 02:36:31;;;;;;;20.47;18.33;;;;;;;-1.38;81.96;92019.75;5049375;28;20190;-77
2024/01/15 02:38:56;;;;;;;20.73;16.77;;;;;;;-1.01;79.86;92023.69;5034082;28;20225;-81
2024/01/15 02:41:22;;;;;;;18.17;16.20;;;;;;;-0.90;79.22;92018.53;5050110;28;20188;-77
2024/01/15 02:43:47;;;;;;;19.00;16.87;;;;;;;-0.85;79.01;92030.69;5048531;28;20273;-77
2024/01/15 02:46:12;;;;;;;21.77;16.67;;;;;;;-0.83;79.48;92024.34;5043830;28;20190;-77
2024/01/15 02:48:38;;;;;;;20.60;18.50;;;;;;;-1.02;79.73;92002.41;5035627;28;20892;-77
2024/01/15 02:51:03;;;;;;;18.40;16.50;;;;;;;-0.98;80.75;92029.13;5036389;28;20182;-77
2024/01/15 02:53:28;;;;;;;21.20;16.67;;;;;;;-0.77;79.52;92026.00;5046936;28;20238;-78
2024/01/15 02:55:54;;;;;;;18.40;15.97;;;;;;;-0.57;78.12;92017.94;5036541;28;20254;-77
2024/01/15 02:58:19;;;;;;;19.03;17.13;;;;;;;-0.50;78.96;92024.50;5042266;28;20229;-79
2024/01/15 03:00:46;;;;;;;18.03;16.37;;;;;;;-0.47;78.79;92023.28;5044685;28;20205;-75
2024/01/15 03:03:11;;;;;;;18.33;14.90;;;;;;;-0.66;79.15;92020.09;5042932;28;20248;-75
2024/01/15 03:05:37;;;;;;;18.47;16.43;;;;;;;-0.55;78.54;92015.94;5042477;28;20186;-75
2024/01/15 03:08:02;;;;;;;21.83;15.77;;;;;;;-0.77;78.60;91984.22;5049407;28;20222;-75
2024/01/15 03:10:27;;;;;;;20.13;16.20;;;;;;;-0.44;78.74;92026.19;5048449;28;20202;-75
2024/01/15 03:12:53;;;;;;;17.00;15.30;;;;;;;-0.44;78.26;92028.75;5048297;28;20241;-76
2024/01/15 03:15:18;;;;;;;17.77;15.97;;;;;;;-0.45;78.92;92031.53;5048831;28;20182;-75
2024/01/15 03:17:44;;;;;;;18.07;16.00;;;;;;;-0.35;78.15;92041.97;5048133;28;20281;-76
2024/01/15 03:20:10;;;;;;;17.90;15.70;;;;;;;-0.36;78.39;92025.03;5043728;28;20193;-75
2024/01/15 03:22:35;;;;;;;22.03;15.80;;;;;;;-0.41;78.68;92017.25;5045313;28;20256;-74
2024/01/15 03:25:01;;;;;;;18.83;16.77;;;;;;;-0.37;78.93;92024.25;5048729;28;20175;-75
2024/01/15 03:27:26;;;;;;;28.57;20.67;;;;;;;-0.35;79.42;92016.34;5040403;28;20285;-75
2024/01/15 03:29:51;;;;;;;24.53;18.40;;;;;;;-0.28;78.56;92010.06;5047715;28;20200;-75
2024/01/15 03:32:17;;;;;;;19.03;15.73;;;;;;;-0.46;79.52;91999.19;5048189;28;20348;-75
2024/01/15 03:34:43;;;;;;;37.07;24.23;;;;;;;-0.41;78.92;91981.34;5044485;28;20177;-75
2024/01/15 03:37:08;;;;;;;27.27;18.63;;;;;;;-0.37;78.69;92003.75;5048331;28;20245;-75
2024/01/15 03:39:33;;;;;;;35.90;22.43;;;;;;;-0.84;80.83;92006.66;5048376;28;20189;-75
2024/01/15 03:41:59;;;;;;;32.23;22.33;;;;;;;-0.50;79.30;91982.72;5029682;28;20276;-75
2024/01/15 03:44:24;;;;;;;27.67;20.10;;;;;;;-0.40;79.08;91993.16;5047430;28;20210;-75
2024/01/15 03:46:50;;;;;;;19.67;17.27;;;;;;;-0.57;79.46;92002.56;5048326;28;20290;-75
2024/01/15 03:49:15;;;;;;;18.23;16.60;;;;;;;-0.47;78.80;92007.91;5047754;28;20198;-75
2024/01/15 03:51:41;;;;;;;22.00;17.03;;;;;;;-0.46;78.71;92004.31;5040569;28;20196;-75
2024/01/15 03:54:06;;;;;;;20.53;16.47;;;;;;;-0.49;78.56;92015.81;5049111;28;20220;-75
2024/01/15 03:56:31;;;;;;;20.23;16.23;;;;;;;-0.60;79.23;91997.91;5044078;28;20202;-75
2024/01/15 03:58:57;;;;;;;18.73;16.20;;;;;;;-0.89;80.44;91997.06;5049210;28;20194;-75
2024/01/15 04:01:22;;;;;;;16.03;14.43;;;;;;;-0.70;80.07;92003.59;5040254;28;20194;-75
2024/01/15 04:03:47;;;;;;;18.97;16.00;;;;;;;-0.63;79.88;92000.91;5047123;28;20221;-75
2024/01/15 04:06:13;;;;;;;18.87;14.73;;;;;;;-0.66;79.89;91999.59;5046714;28;20249;-75
2024/01/15 04:08:38;;;;;;;18.17;16.30;;;;;;;-0.62;79.54;91987.88;5045092;28;20222;-75
2024/01/15 04:11:03;;;;;;;17.57;14.70;;;;;;;-0.72;80.26;91984.34;5039562;28;20198;-75
2024/01/15 04:13:32;;;;;;;16.93;15.13;;;;;;;-0.89;80.63;91979.13;5036357;28;20256;-75
2024/01/15 04:15:57;;;;;;;16.83;14.87;;;;;;;-0.89;80.26;91983.47;5049023;28;20193;-75
2024/01/15 04:18:23;;;;;;;17.40;15.43;;;;;;;-0.97;81.22;91956.44;5039152;28;20207;-75
2024/01/15 04:20:48;;;;;;;17.73;15.33;;;;;;;-0.80;80.93;91962.41;5047272;28;20249;-75
2024/01/15 04:23:13;;;;;;;16.43;14.27;;;;;;;-0.85;81.06;91969.19;5047891;28;20289;-75
2024/01/15 04:25:42;;;;;;;15.83;14.30;;;;;;;-0.83;81.15;91974.88;5048341;28;20178;-75
2024/01/15 04:28:08;;;;;;;16.00;14.40;;;;;;;-0.97;81.19;91987.16;5048055;28;20228;-75
2024/01/15 04:30:33;;;;;;;18.60;14.27;;;;;;;-0.97;81.12;91978.69;5040574;28;20179;-75
2024/01/15 04:32:58;;;;;;;21.43;15.53;;;;;;;-1.07;81.34;91991.28;5045904;28;20232;-75
2024/01/15 04:35:24;;;;;;;18.43;14.77;;;;;;;-1.05;81.38;91990.06;5044624;28;20194;-75
2024/01/15 04:37:49;;;;;;;16.77;14.73;;;;;;;-1.05;81.28;91984.16;5045291;28;20214;-76
2024/01/15 04:40:15;;;;;;;17.53;15.30;;;;;;;-1.11;82.08;91990.16;5052068;28;20209;-76
2024/01/15 04:42:40;;;;;;;22.40;15.37;;;;;;;-1.23;82.07;91985.03;5047769;28;20285;-78
2024/01/15 04:45:05;;;;;;;19.13;17.23;;;;;;;-1.08;81.92;91979.47;5046111;28;20187;-77
2024/01/15 04:47:31;;;;;;;16.90;15.13;;;;;;;-1.18;81.77;91969.78;5044427;28;20233;-77
2024/01/15 04:49:56;;;;;;;16.83;14.97;;;;;;;-1.04;81.02;91976.25;5048650;28;20194;-79
2024/01/15 04:52:22;;;;;;;16.60;14.87;;;;;;;-1.32;82.11;91978.72;5044490;28;20245;-79
2024/01/15 04:54:47;;;;;;;16.93;15.33;;;;;;;-1.25;81.51;91958.13;5051640;28;20197;-81
2024/01/15 04:57:12;;;;;;;17.70;15.67;;;;;;;-1.06;81.49;91973.13;5051142;28;20233;-79
2024/01/15 04:59:38;;;;;;;15.40;13.70;;;;;;;-1.09;81.29;91957.44;5043907;28;20230;-80
2024/01/15 05:02:03;;;;;;;19.87;15.47;;;;;;;-1.09;81.92;91957.44;5045538;28;20302;-79
2024/01/15 05:04:28;;;;;;;16.87;14.83;;;;;;;-1.11;81.62;91941.53;5042710;28;20202;-79
2024/01/15 05:06:55;;;;;;;17.87;15.40;;;;;;;-1.11;80.95;91926.94;5039621;28;20693;-80
2024/01/15 05:09:20;;;;;;;17.00;15.10;;;;;;;-1.03;81.15;91941.19;5046365;28;20259;-80
2024/01/15 05:11:45;;;;;;;18.17;16.37;;;;;;;-0.77;80.71;91938.09;5039579;28;20249;-82
2024/01/15 05:14:11;;;;;;;17.83;14.47;;;;;;;-0.89;80.83;91922.78;5047838;28;20205;-79
2024/01/15 05:16:46;;;;;;;17.27;15.50;;;;;;;-1.09;81.39;91921.59;5046805;28;20192;-79
2024/01/15 05:19:11;;;;;;;17.73;14.83;;;;;;;-1.03;81.46;91925.81;5050693;28;20174;-85
2024/01/15 05:21:36;;;;;;;19.70;16.47;;;;;;;-1.29;81.45;91936.53;5049725;28;20226;-83
2024/01/15 05:24:02;;;;;;;20.03;15.27;;;;;;;-1.20;82.77;91927.50;5049999;28;20221;-85
2024/01/15 05:26:27;;;;;;;21.43;16.30;;;;;;;-0.89;80.97;91945.84;5049262;28;20186;-78
2024/01/15 05:28:52;;;;;;;54.40;28.40;;;;;;;-1.13;82.20;91958.88;5044749;28;20216;-79
2024/01/15 05:31:18;;;;;;;61.63;29.77;;;;;;;-0.71;80.65;91942.31;5050811;28;20194;-75
2024/01/15 05:33:43;;;;;;;44.23;23.57;;;;;;;-0.79;79.24;91943.47;5050203;28;20230;-84
2024/01/15 05:36:08;;;;;;;57.03;30.40;;;;;;;-0.98;79.98;91933.59;5049762;28;20194;-82
2024/01/15 05:38:34;;;;;;;88.53;38.90;;;;;;;-0.83;80.86;91951.84;5042680;28;20222;-78
2024/01/15 05:40:59;;;;;;;59.77;29.80;;;;;;;-0.68;81.12;91945.22;5035276;28;20193;-82
2024/01/15 05:43:24;;;;;;;42.90;23.77;;;;;;;-0.46;84.32;91937.69;5048163;28;20214;-82
2024/01/15 05:45:50;;;;;;;31.83;19.73;;;;;;;-0.52;80.53;91948.84;5049962;28;20246;-81
2024/01/15 05:48:15;;;;;;;18.43;16.23;;;;;;;-0.52;79.79;91938.59;5045885;28;20252;-83
2024/01/15 05:50:41;;;;;;;17.63;15.73;;;;;;;-0.56;79.51;91929.81;5049490;28;20174;-83
2024/01/15 05:53:06;;;;;;;23.40;18.03;;;;;;;-0.69;79.48;91912.94;5079902;28;20221;-82
2024/01/15 05:55:32;;;;;;;19.03;15.73;;;;;;;-0.53;78.78;91927.56;5048523;28;20204;-84
2024/01/15 05:57:57;;;;;;;17.43;15.73;;;;;;;-0.54;79.27;91930.34;5048355;28;20236;-83
2024/01/15 06:00:22;;;;;;;17.53;15.83;;;;;;;-0.56;78.26;91937.50;5049654;28;20186;-81
2024/01/15 06:02:48;;;;;;;18.27;16.37;;;;;;;-0.47;78.16;91946.38;5054688;28;20236;-82
2024/01/15 06:05:13;;;;;;;17.83;15.97;;;;;;;-0.45;77.93;91931.56;5052497;28;20202;-83
2024/01/15 06:07:38;;;;;;;15.87;14.20;;;;;;;-0.42;78.10;91938.78;5047863;28;20229;-84
2024/01/15 06:10:04;;;;;;;17.60;16.03;;;;;;;-0.73;77.95;91893.88;5045224;28;20202;-82
2024/01/15 06:12:30;;;;;;;22.03;14.60;;;;;;;-0.39;77.76;91933.22;5047835;28;20237;-84
2024/01/15 06:14:56;;;;;;;19.00;16.43;;;;;;;-0.39;78.01;91933.97;5047322;28;20202;-84
2024/01/15 06:17:21;;;;;;;17.80;14.67;;;;;;;-0.45;78.48;91929.75;5040168;28;20257;-79
2024/01/15 06:19:46;;;;;;;16.47;14.70;;;;;;;-0.24;81.12;91923.22;5048812;28;20212;-81
2024/01/15 06:22:12;;;;;;;16.70;14.73;;;;;;;-0.16;77.85;91928.72;5049562;28;20297;-82
2024/01/15 06:24:37;;;;;;;16.13;14.80;;;;;;;-0.07;77.97;91932.50;5045890;28;20206;-80
2024/01/15 06:27:03;;;;;;;16.20;14.60;;;;;;;-0.20;79.64;91930.22;5044788;28;20360;-80
2024/01/15 06:29:28;;;;;;;15.80;14.20;;;;;;;-0.06;78.37;91923.00;5043819;28;20182;-84
2024/01/15 06:31:53;;;;;;;16.97;15.37;;;;;;;-0.11;78.06;91925.50;5048810;28;20744;-86
2024/01/15 06:34:19;;;;;;;16.30;14.83;;;;;;;0.11;77.50;91923.03;5041646;28;20207;-83
2024/01/15 06:36:44;;;;;;;16.87;15.20;;;;;;;0.08;77.58;91914.00;5045969;28;20189;-83
2024/01/15 06:39:10;;;;;;;17.93;14.90;;;;;;;0.38;77.55;91929.09;5050739;28;20178;-84
2024/01/15 06:41:41;;;;;;;18.87;16.87;;;;;;;0.55;76.55;91935.78;5048635;28;20259;-79
2024/01/15 06:44:06;;;;;;;17.87;15.90;;;;;;;0.69;76.25;91920.81;5040889;28;20289;-83
2024/01/15 06:46:32;;;;;;;25.57;17.63;;;;;;;0.86;75.75;91937.75;5048729;28;20202;-79
2024/01/15 06:48:57;;;;;;;28.83;19.57;;;;;;;0.98;75.56;91935.09;5047179;28;20213;-81
2024/01/15 06:51:22;;;;;;;42.03;24.87;;;;;;;1.35;74.13;91947.13;5044646;28;20193;-81
2024/01/15 06:53:48;;;;;;;29.90;18.77;;;;;;;1.44;73.16;91939.78;5037756;28;20225;-80
2024/01/15 06:56:13;;;;;;;26.87;17.80;;;;;;;1.53;73.48;91931.41;5048666;28;20193;-80
2024/01/15 06:58:38;;;;;;;24.97;18.43;;;;;;;1.28;75.34;91940.59;5047112;28;20222;-81
2024/01/15 07:01:04;;;;;;;26.13;19.83;;;;;;;0.56;76.50;91946.84;5033402;28;20199;-80
2024/01/15 07:03:29;;;;;;;27.20;19.27;;;;;;;1.10;75.08;91931.41;5038162;28;20229;-81
2024/01/15 07:05:55;;;;;;;25.87;18.37;;;;;;;1.48;75.04;91936.47;5048724;28;20241;-79
2024/01/15 07:08:20;;;;;;;23.57;17.63;;;;;;;1.55;74.58;91946.59;5048056;28;20229;-80
2024/01/15 07:10:45;;;;;;;18.73;16.83;;;;;;;1.72;72.78;91931.06;5048720;28;20182;-80
2024/01/15 07:13:11;;;;;;;19.47;17.27;;;;;;;1.89;72.47;91966.00;5045903;28;21601;-80
2024/01/15 07:15:36;;;;;;;33.03;20.77;;;;;;;1.19;75.08;91953.09;5043959;28;20190;-75
2024/01/15 07:18:01;;;;;;;25.23;20.80;;;;;;;1.26;81.74;91956.28;5037678;28;20234;-74
2024/01/15 07:20:27;;;;;;;32.80;22.80;;;;;;;1.41;75.07;91933.34;5041690;28;20182;-75
2024/01/15 07:22:52;;;;;;;22.90;19.47;;;;;;;1.79;78.54;91937.56;5044180;28;20209;-74
2024/01/15 07:25:18;;;;;;;22.83;17.60;;;;;;;1.80;74.67;91940.94;5044927;28;20190;-74
2024/01/15 07:27:44;;;;;;;22.07;17.07;;;;;;;1.90;74.31;91934.09;5039130;28;20216;-75
2024/01/15 07:30:11;;;;;;;17.57;15.37;;;;;;;1.92;73.95;91941.56;5046835;28;20187;-75
2024/01/15 07:32:36;;;;;;;19.03;16.20;;;;;;;1.93;72.47;91919.97;5040881;28;20294;-75
2024/01/15 07:35:02;;;;;;;19.77;15.67;;;;;;;2.02;72.28;91924.44;5045918;28;20221;-75
2024/01/15 07:37:28;;;;;;;23.87;14.90;;;;;;;2.20;72.49;91943.91;5044179;28;20210;-74
2024/01/15 07:39:53;;;;;;;19.13;14.63;;;;;;;2.34;71.70;91920.09;5048691;28;20270;-75
2024/01/15 07:42:19;;;;;;;19.63;16.37;;;;;;;2.30;71.57;91941.41;5043568;28;20214;-74
2024/01/15 07:44:44;;;;;;;19.57;15.73;;;;;;;2.52;70.51;91944.69;5048107;28;20186;-74
2024/01/15 07:47:10;;;;;;;16.43;14.77;;;;;;;2.60;69.70;91939.84;5043091;28;20245;-74
2024/01/15 07:49:35;;;;;;;17.30;15.63;;;;;;;2.39;70.67;91947.66;5037994;28;20171;-74
2024/01/15 07:52:01;;;;;;;16.80;15.00;;;;;;;2.84;69.53;91960.91;5041621;28;20222;-75
2024/01/15 07:54:26;;;;;;;22.20;15.70;;;;;;;3.10;68.37;91954.88;5048165;28;20210;-75
2024/01/15 07:57:00;;;;;;;19.13;17.13;;;;;;;3.22;67.11;91958.06;5037490;28;20230;-75
2024/01/15 07:59:26;;;;;;;19.33;16.13;;;;;;;3.24;67.91;91946.44;5048102;28;20178;-76
2024/01/15 08:01:51;;;;;;;18.57;15.43;;;;;;;3.10;68.50;91942.75;5042897;28;20238;-75
2024/01/15 08:04:17;;;;;;;16.33;14.60;;;;;;;3.23;67.87;91926.06;5043150;28;20182;-75
2024/01/15 08:06:42;;;;;;;18.07;14.07;;;;;;;3.25;68.19;91922.22;5044287;28;20183;-75
2024/01/15 08:09:08;;;;;;;16.77;15.03;;;;;;;3.54;67.48;91927.75;5047626;28;20197;-75
2024/01/15 08:11:34;;;;;;;18.33;15.17;;;;;;;3.71;67.72;91924.97;5046780;28;20185;-76
2024/01/15 08:14:00;;;;;;;51.23;29.10;;;;;;;3.60;67.81;91934.47;5051595;28;20222;-75
2024/01/15 08:16:27;;;;;;;41.23;29.03;;;;;;;3.19;68.78;91946.41;5051439;28;20197;-75
2024/01/15 08:18:52;;;;;;;43.33;30.13;;;;;;;2.82;69.91;91921.69;5051719;28;20351;-75
2024/01/15 08:21:18;;;;;;;40.97;28.97;;;;;;;3.09;67.33;91925.75;5046615;28;20213;-74
2024/01/15 08:23:44;;;;;;;48.03;30.83;;;;;;;3.01;67.16;91946.06;5052433;28;20305;-76
2024/01/15 08:26:10;;;;;;;36.77;26.07;;;;;;;2.88;67.57;91951.66;5051534;28;20265;-75
2024/01/15 08:28:35;;;;;;;30.70;23.67;;;;;;;2.34;68.69;91957.91;5047838;28;20228;-75
2024/01/15 08:31:01;;;;;;;34.03;24.10;;;;;;;2.51;67.51;91920.72;5051104;28;20202;-75
2024/01/15 08:33:26;;;;;;;35.33;23.57;;;;;;;2.57;69.14;91937.78;5037057;28;20233;-75
2024/01/15 08:35:52;;;;;;;35.87;24.83;;;;;;;2.13;70.22;91936.41;5043130;28;20203;-75
2024/01/15 08:38:19;;;;;;;32.33;22.93;;;;;;;1.93;70.54;91933.59;5052208;28;20232;-75
2024/01/15 08:40:44;;;;;;;29.40;22.53;;;;;;;2.28;68.60;91925.44;5044439;28;20258;-75
2024/01/15 08:43:09;;;;;;;30.57;21.43;;;;;;;2.31;67.79;91927.50;5033076;28;20215;-75
2024/01/15 08:45:35;;;;;;;30.10;22.33;;;;;;;2.48;67.90;91920.44;5035174;28;20190;-75
2024/01/15 08:48:01;;;;;;;31.73;20.30;;;;;;;2.55;67.65;91915.88;5043760;28;20238;-75
2024/01/15 08:50:26;;;;;;;36.17;23.03;;;;;;;2.30;68.23;91913.09;5042528;28;20210;-75
2024/01/15 08:52:52;;;;;;;31.70;21.83;;;;;;;2.61;67.80;91914.88;5040528;28;20244;-75
2024/01/15 08:55:17;;;;;;;24.60;20.33;;;;;;;2.38;68.45;91921.13;5047596;28;20178;-75
2024/01/15 08:57:43;;;;;;;35.80;24.80;;;;;;;1.85;71.05;91915.25;5045343;28;20214;-75
2024/01/15 09:00:09;;;;;;;35.80;25.53;;;;;;;1.77;72.44;91906.19;5051512;28;20197;-75
2024/01/15 09:02:35;;;;;;;33.37;24.30;;;;;;;1.77;70.92;91903.63;5045790;28;20298;-75
2024/01/15 09:05:01;;;;;;;38.23;25.37;;;;;;;2.02;70.66;91906.44;5046252;28;20170;-75
2024/01/15 09:07:26;;;;;;;35.07;24.93;;;;;;;2.58;68.99;91895.56;5051778;28;20217;-75
2024/01/15 09:09:52;;;;;;;46.97;26.30;;;;;;;2.74;68.49;91888.69;5046233;28;20174;-75
2024/01/15 09:12:20;;;;;;;36.73;26.33;;;;;;;2.76;68.38;91881.47;5041203;28;20312;-75
2024/01/15 09:14:46;;;;;;;44.47;26.83;;;;;;;2.94;68.21;91873.34;5051445;28;20197;-75
2024/01/15 09:17:12;;;;;;;34.43;24.33;;;;;;;2.96;68.00;91838.53;5049257;28;20234;-75
2024/01/15 09:19:38;;;;;;;38.97;25.43;;;;;;;3.17;67.23;91847.94;5041228;28;20197;-75
2024/01/15 09:22:04;;;;;;;32.27;22.60;;;;;;;3.38;65.67;91848.75;5050510;28;20233;-75
2024/01/15 09:24:29;;;;;;;26.90;21.73;;;;;;;3.52;64.68;91824.03;5041055;28;20283;-76
2024/01/15 09:26:55;;;;;;;33.83;21.30;;;;;;;3.73;64.22;91824.84;5051340;28;20226;-75
2024/01/15 09:29:20;;;;;;;28.63;20.17;;;;;;;2.86;65.16;91835.16;5051310;28;20782;-75
2024/01/15 09:31:45;;;;;;;24.30;20.37;;;;;;;3.60;62.62;91826.09;5044933;28;20241;-75
2024/01/15 09:34:11;;;;;;;28.53;20.63;;;;;;;3.62;64.02;91834.38;5044518;28;20213;-75
2024/01/15 09:36:43;;;;;;;26.40;20.23;;;;;;;3.62;62.32;91844.69;5050970;28;20178;-75
2024/01/15 09:39:10;;;;;;;32.90;20.43;;;;;;;3.28;63.12;91834.00;5047108;28;20193;-76
2024/01/15 09:41:36;;;;;;;33.23;23.17;;;;;;;2.97;64.96;91816.88;5041034;28;20245;-75
2024/01/15 09:44:03;;;;;;;32.70;22.20;;;;;;;3.53;63.48;91835.91;5049035;28;20205;-76
2024/01/15 09:46:28;;;;;;;29.47;23.53;;;;;;;3.47;62.78;91818.84;5048960;28;20289;-75
2024/01/15 09:48:54;;;;;;;35.00;22.60;;;;;;;3.29;63.23;91804.63;5046871;28;20206;-76
2024/01/15 09:51:20;;;;;;;35.57;23.37;;;;;;;2.95;64.77;91798.34;5057986;28;20244;-75
2024/01/15 09:53:47;;;;;;;41.23;24.33;;;;;;;2.71;67.01;91801.56;5045893;28;20241;-75
2024/01/15 09:56:12;;;;;;;54.30;28.20;;;;;;;1.93;71.18;91768.16;5049438;28;20196;-75
2024/01/15 09:58:39;;;;;;;35.33;24.53;;;;;;;2.37;68.28;91774.59;5046412;28;20230;-75
2024/01/15 10:01:04;;;;;;;43.73;26.40;;;;;;;2.63;66.67;91771.91;5043752;28;20182;-76
2024/01/15 10:03:30;;;;;;;36.73;24.73;;;;;;;2.98;65.36;91781.59;5048394;28;20290;-76
2024/01/15 10:05:58;;;;;;;31.77;22.80;;;;;;;3.03;63.35;91799.66;5050360;28;20241;-75
2024/01/15 10:08:25;;;;;;;30.00;22.03;;;;;;;2.80;64.13;91780.22;5049727;28;20218;-75
2024/01/15 10:10:50;;;;;;;31.43;21.90;;;;;;;2.41;64.95;91779.00;5050310;28;20170;-75
2024/01/15 10:13:16;;;;;;;28.43;22.07;;;;;;;2.49;65.86;91775.19;5043496;28;20305;-76
2024/01/15 10:15:46;;;;;;;33.73;21.80;;;;;;;2.99;64.21;91754.75;5040723;28;20187;-76
2024/01/15 10:18:12;;;;;;;40.50;25.47;;;;;;;2.96;65.76;91763.00;5047219;28;20214;-76
2024/01/15 10:20:37;;;;;;;57.13;34.80;;;;;;;2.77;66.61;91764.50;5045409;28;20273;-75
2024/01/15 10:23:03;;;;;;;64.53;35.70;;;;;;;2.75;67.42;91749.31;5049831;28;20228;-75
2024/01/15 10:25:29;;;;;;;62.73;37.80;;;;;;;3.16;66.36;91732.91;5050456;28;20204;-76
2024/01/15 10:59:48;;;;;;;81.87;44.63;;;;;;;2.91;69.46;91714.03;5095403;27;20591;-75
2024/01/15 11:02:15;;;;;;;80.23;45.20;;;;;;;3.33;67.12;91715.41;5078039;27;20226;-75
2024/01/15 11:04:40;;;;;;;70.30;44.90;;;;;;;3.95;65.04;91699.66;5039191;28;20190;-75
2024/01/15 11:07:06;;;;;;;91.90;46.70;;;;;;;4.07;64.38;91699.38;5045799;28;20225;-75
2024/01/15 11:09:32;;;;;;;73.77;43.97;;;;;;;3.95;63.66;91696.28;5054046;28;20193;-75
2024/01/15 11:12:11;;;;;;;74.47;46.13;;;;;;;4.05;64.26;91694.47;5055094;28;20229;-74
2024/01/15 11:14:44;;;;;;;73.60;45.60;;;;;;;4.44;62.75;91692.03;5055376;28;20182;-75
2024/01/15 11:17:10;;;;;;;72.70;44.93;;;;;;;4.18;63.32;91691.34;5057090;28;20404;-76
2024/01/15 11:19:41;;;;;;;66.60;43.87;;;;;;;4.69;61.60;91697.13;5057624;28;20238;-75
2024/01/15 11:22:09;;;;;;;73.27;42.30;;;;;;;4.26;61.99;91692.63;5054295;28;20234;-75
2024/01/15 11:24:39;;;;;;;67.97;41.57;;;;;;;4.70;61.26;91693.50;5057328;28;20190;-76
2024/01/15 11:27:06;;;;;;;65.73;42.27;;;;;;;5.03;60.52;91694.66;5052394;28;20237;-75
2024/01/15 11:29:35;;;;;;;69.23;43.70;;;;;;;4.31;62.73;91692.63;5054039;28;20202;-76
2024/01/15 11:32:08;;;;;;;65.77;43.67;;;;;;;5.08;60.38;91676.50;5060377;28;20271;-75
2024/01/15 11:34:58;;;;;;;66.83;41.73;;;;;;;5.46;59.84;91688.69;5055719;28;20201;-75
2024/01/15 11:37:25;;;;;;;63.27;38.47;;;;;;;5.26;59.95;91694.00;5053268;28;20315;-75
2024/01/15 11:39:53;;;;;;;67.47;38.70;;;;;;;5.69;59.50;91687.97;5060272;28;20269;-75
2024/01/15 11:42:21;;;;;;;66.83;39.33;;;;;;;4.89;60.06;91671.94;5055116;28;20856;-76
2024/01/15 11:44:46;;;;;;;62.40;39.13;;;;;;;4.80;61.57;91673.56;5054000;28;20187;-75